createdAt,value
2022-08-09T00:00:23.394Z,22.26
2022-08-09T00:02:52.333Z,22.25
2022-08-09T00:06:19.471Z,22.19
2022-08-09T00:08:11.337Z,22.12
2022-08-09T00:10:42.578Z,22.08
2022-08-09T00:13:17.247Z,22.03
2022-08-09T00:15:58.709Z,22.03
2022-08-09T00:18:31.383Z,22.00
2022-08-09T00:21:07.709Z,21.98
2022-08-09T00:23:57.744Z,21.93
2022-08-09T00:26:32.190Z,21.93
2022-08-09T00:29:01.867Z,21.85
2022-08-09T00:31:57.118Z,21.80
2022-08-09T00:34:19.249Z,21.70
2022-08-09T00:36:48.094Z,21.65
2022-08-09T00:40:12.804Z,21.62
2022-08-09T00:44:14.881Z,21.55
2022-08-09T00:44:55.388Z,21.52
2022-08-09T00:47:23.874Z,21.49
2022-08-09T00:49:54.936Z,21.47
2022-08-09T00:52:30.532Z,21.47
2022-08-09T00:55:00.855Z,21.41
2022-08-09T00:57:35.079Z,21.40
2022-08-09T01:00:21.901Z,21.40
2022-08-09T01:02:52.014Z,21.38
2022-08-09T01:05:53.348Z,21.33
2022-08-09T01:08:14.960Z,21.25
2022-08-09T01:10:47.368Z,21.19
2022-08-09T01:13:23.698Z,21.19
2022-08-09T01:15:59.316Z,21.18
2022-08-09T01:18:31.694Z,21.13
2022-08-09T01:21:10.026Z,21.06
2022-08-09T01:24:03.160Z,21.04
2022-08-09T01:26:59.377Z,21.08
2022-08-09T01:29:55.103Z,21.00
2022-08-09T01:32:31.947Z,20.97
2022-08-09T01:35:17.918Z,20.99
2022-08-09T01:38:08.250Z,21.01
2022-08-09T01:40:38.885Z,21.03
2022-08-09T01:43:09.437Z,21.01
2022-08-09T01:45:46.283Z,20.96
2022-08-09T01:48:16.554Z,20.91
2022-08-09T01:50:48.280Z,20.91
2022-08-09T01:53:19.282Z,20.96
2022-08-09T01:55:48.773Z,21.01
2022-08-09T01:58:18.245Z,21.06
2022-08-09T02:00:52.166Z,21.10
2022-08-09T02:03:21.553Z,21.11
2022-08-09T02:06:04.021Z,21.09
2022-08-09T02:08:57.792Z,21.05
2022-08-09T02:11:24.593Z,21.02
2022-08-09T02:14:16.018Z,20.94
2022-08-09T02:17:14.985Z,20.87
2022-08-09T02:19:43.819Z,20.83
2022-08-09T02:22:16.395Z,20.74
2022-08-09T02:24:51.897Z,20.68
2022-08-09T02:27:21.440Z,20.64
2022-08-09T02:30:11.419Z,20.56
2022-08-09T02:32:42.603Z,20.49
2022-08-09T02:35:18.256Z,20.42
2022-08-09T02:37:49.225Z,20.37
2022-08-09T02:40:27.097Z,20.28
2022-08-09T02:42:59.992Z,20.22
2022-08-09T02:45:31.354Z,20.13
2022-08-09T02:48:03.678Z,20.12
2022-08-09T02:50:34.746Z,20.14
2022-08-09T02:53:04.364Z,20.19
2022-08-09T02:55:46.404Z,20.25
2022-08-09T02:58:36.330Z,20.27
2022-08-09T03:01:11.124Z,20.26
2022-08-09T03:04:17.659Z,20.25
2022-08-09T03:06:31.267Z,20.22
2022-08-09T03:09:01.007Z,20.21
2022-08-09T03:11:29.927Z,20.20
2022-08-09T03:14:17.665Z,20.22
2022-08-09T03:16:48.006Z,20.22
2022-08-09T03:19:58.504Z,20.22
2022-08-09T03:22:11.709Z,20.18
2022-08-09T03:24:42.696Z,20.12
2022-08-09T03:27:21.544Z,20.08
2022-08-09T03:29:57.966Z,20.07
2022-08-09T03:32:31.926Z,20.01
2022-08-09T03:35:00.532Z,19.99
2022-08-09T03:37:55.519Z,19.95
2022-08-09T03:40:18.166Z,19.93
2022-08-09T03:42:46.710Z,19.92
2022-08-09T03:45:15.597Z,19.86
2022-08-09T03:47:46.550Z,19.81
2022-08-09T03:50:27.670Z,19.80
2022-08-09T03:52:57.618Z,19.75
2022-08-09T03:55:26.463Z,19.72
2022-08-09T03:58:03.464Z,19.71
2022-08-09T04:00:38.414Z,19.69
2022-08-09T04:03:09.160Z,19.67
2022-08-09T04:05:43.569Z,19.64
2022-08-09T04:08:13.176Z,19.62
2022-08-09T04:10:41.381Z,19.62
2022-08-09T04:13:11.554Z,19.66
2022-08-09T04:16:17.912Z,19.69
2022-08-09T04:18:29.591Z,19.70
2022-08-09T04:20:57.658Z,19.71
2022-08-09T04:23:26.001Z,19.69
2022-08-09T04:25:54.654Z,19.68
2022-08-09T04:28:33.846Z,19.63
2022-08-09T04:31:09.074Z,19.55
2022-08-09T04:33:51.953Z,19.46
2022-08-09T04:36:23.385Z,19.41
2022-08-09T04:38:52.247Z,19.35
2022-08-09T04:41:23.888Z,19.35
2022-08-09T04:44:05.998Z,19.32
2022-08-09T04:46:59.296Z,19.32
2022-08-09T04:49:40.885Z,19.32
2022-08-09T04:52:18.632Z,19.29
2022-08-09T04:54:54.385Z,19.26
2022-08-09T04:57:24.346Z,19.22
2022-08-09T04:59:54.175Z,19.22
2022-08-09T05:02:22.831Z,19.20
2022-08-09T05:04:55.701Z,19.21
2022-08-09T05:07:24.853Z,19.17
2022-08-09T05:09:55.957Z,19.10
2022-08-09T05:12:24.085Z,19.06
2022-08-09T05:14:52.196Z,19.05
2022-08-09T05:18:38.170Z,18.98
2022-08-09T05:20:11.077Z,19.00
2022-08-09T05:23:53.557Z,19.02
2022-08-09T05:25:32.267Z,19.00
2022-08-09T05:28:00.853Z,19.00
2022-08-09T05:30:30.063Z,19.02
2022-08-09T05:33:00.725Z,19.04
2022-08-09T05:35:31.974Z,19.07
2022-08-09T05:38:07.096Z,19.12
2022-08-09T05:40:36.323Z,19.13
2022-08-09T05:43:04.645Z,19.16
2022-08-09T05:45:53.082Z,19.15
2022-08-09T05:48:20.950Z,19.25
2022-08-09T05:51:42.646Z,19.23
2022-08-09T05:53:56.802Z,19.24
2022-08-09T05:56:27.203Z,19.20
2022-08-09T05:58:58.330Z,19.19
2022-08-09T06:01:27.333Z,19.25
2022-08-09T06:04:05.650Z,19.34
2022-08-09T06:06:35.878Z,19.40
2022-08-09T06:09:09.970Z,19.51
2022-08-09T06:11:57.330Z,19.61
2022-08-09T06:14:26.367Z,19.66
2022-08-09T06:16:57.232Z,19.66
2022-08-09T06:19:27.533Z,19.69
2022-08-09T06:21:59.048Z,19.73
2022-08-09T06:24:27.690Z,19.79
2022-08-09T06:26:57.089Z,19.88
2022-08-09T06:29:27.002Z,19.99
2022-08-09T06:32:17.274Z,20.08
2022-08-09T06:34:43.591Z,20.16
2022-08-09T06:37:13.448Z,20.26
2022-08-09T06:39:57.682Z,20.39
2022-08-09T06:42:28.538Z,20.54
2022-08-09T06:44:59.309Z,20.70
2022-08-09T06:47:39.441Z,20.85
2022-08-09T06:50:13.922Z,21.02
2022-08-09T06:52:48.710Z,21.15
2022-08-09T06:55:17.866Z,21.32
2022-08-09T06:58:02.608Z,21.49
2022-08-09T07:00:50.660Z,21.66
2022-08-09T07:03:28.073Z,21.85
2022-08-09T07:06:03.625Z,22.06
2022-08-09T07:08:37.135Z,22.26
2022-08-09T07:11:07.747Z,22.44
2022-08-09T07:13:45.025Z,22.60
2022-08-09T07:16:40.872Z,22.80
2022-08-09T07:19:15.016Z,22.96
2022-08-09T07:21:55.393Z,23.13
2022-08-09T07:24:31.552Z,23.27
2022-08-09T07:27:01.276Z,23.40
2022-08-09T07:29:30.881Z,23.51
2022-08-09T07:32:07.371Z,23.64
2022-08-09T07:34:35.516Z,23.74
2022-08-09T07:37:03.773Z,23.88
2022-08-09T07:39:41.333Z,24.01
2022-08-09T07:42:11.450Z,24.12
2022-08-09T07:44:51.187Z,24.21
2022-08-09T07:47:21.689Z,24.29
2022-08-09T07:50:04.758Z,24.39
2022-08-09T07:52:35.603Z,24.49
2022-08-09T07:55:09.809Z,24.60
2022-08-09T07:57:46.617Z,24.68
2022-08-09T08:00:35.827Z,24.72
2022-08-09T08:03:08.175Z,24.79
2022-08-09T08:05:39.271Z,24.83
2022-08-09T08:09:02.585Z,24.85
2022-08-09T08:12:23.939Z,24.93
2022-08-09T08:14:06.870Z,25.02
2022-08-09T08:16:39.614Z,25.11
2022-08-09T08:19:27.834Z,25.25
2022-08-09T08:21:59.194Z,25.32
2022-08-09T08:24:34.289Z,25.38
2022-08-09T08:27:16.574Z,25.50
2022-08-09T08:29:50.040Z,25.61
2022-08-09T08:32:28.675Z,25.76
2022-08-09T08:34:58.912Z,25.82
2022-08-09T08:37:41.373Z,25.91
2022-08-09T08:40:18.945Z,26.07
2022-08-09T08:42:49.008Z,26.18
2022-08-09T08:45:19.014Z,26.22
2022-08-09T08:48:10.102Z,26.19
2022-08-09T08:50:38.870Z,26.25
2022-08-09T08:53:15.707Z,26.37
2022-08-09T08:55:45.072Z,26.49
2022-08-09T08:58:15.013Z,26.53
2022-08-09T09:00:46.614Z,26.60
2022-08-09T09:03:33.111Z,26.65
2022-08-09T09:06:07.892Z,26.75
2022-08-09T09:08:41.123Z,26.89
2022-08-09T09:11:13.909Z,27.02
2022-08-09T09:13:57.330Z,27.11
2022-08-09T09:16:30.591Z,27.14
2022-08-09T09:22:07.930Z,27.28
2022-08-09T09:24:43.985Z,27.37
2022-08-09T09:28:03.314Z,27.52
2022-08-09T09:30:33.023Z,27.71
2022-08-09T09:33:15.395Z,27.90
2022-08-09T09:36:02.320Z,28.00
2022-08-09T09:38:53.280Z,28.11
2022-08-09T09:41:33.066Z,28.20
2022-08-09T09:44:11.621Z,28.31
2022-08-09T09:46:50.773Z,28.42
2022-08-09T09:49:49.728Z,28.50
2022-08-09T09:52:33.662Z,28.63
2022-08-09T09:55:02.858Z,28.71
2022-08-09T09:58:02.834Z,28.65
2022-08-09T10:00:34.609Z,28.67
2022-08-09T10:03:11.373Z,28.79
2022-08-09T10:06:03.290Z,28.87
2022-08-09T10:08:43.149Z,29.02
2022-08-09T10:11:53.695Z,29.23
2022-08-09T10:14:30.781Z,29.29
2022-08-09T10:17:38.917Z,29.30
2022-08-09T10:20:10.814Z,29.56
2022-08-09T10:22:43.815Z,29.75
2022-08-09T10:25:14.559Z,29.90
2022-08-09T10:27:57.611Z,30.04
2022-08-09T10:34:04.980Z,30.33
2022-08-09T10:36:13.208Z,30.56
2022-08-09T10:38:56.036Z,30.72
2022-08-09T10:41:29.308Z,30.91
2022-08-09T10:44:02.203Z,30.99
2022-08-09T10:46:54.689Z,31.21
2022-08-09T10:49:42.725Z,31.42
2022-08-09T10:52:22.595Z,31.57
2022-08-09T10:54:54.837Z,31.72
2022-08-09T10:57:24.140Z,31.79
2022-08-09T10:59:57.742Z,31.96
2022-08-09T11:03:13.823Z,32.08
2022-08-09T11:05:30.097Z,32.14
2022-08-09T11:08:14.291Z,32.08
2022-08-09T11:10:59.841Z,32.06
2022-08-09T11:13:50.898Z,32.17
2022-08-09T11:16:37.244Z,32.26
2022-08-09T11:19:11.243Z,32.19
2022-08-09T11:22:10.608Z,32.21
2022-08-09T11:25:17.163Z,32.31
2022-08-09T11:28:04.705Z,32.48
2022-08-09T11:30:37.607Z,32.57
2022-08-09T11:33:08.535Z,32.61
2022-08-09T11:35:49.323Z,32.73
2022-08-09T11:38:28.558Z,32.82
2022-08-09T11:41:38.097Z,32.65
2022-08-09T11:44:08.914Z,32.86
2022-08-09T11:46:53.677Z,32.69
2022-08-09T11:50:52.512Z,32.84
2022-08-09T11:53:58.972Z,33.02
2022-08-09T11:56:41.327Z,33.34
2022-08-09T11:59:30.438Z,33.64
2022-08-09T12:02:34.325Z,33.80
2022-08-09T12:04:58.227Z,33.99
2022-08-09T12:07:41.074Z,34.10
2022-08-09T12:10:38.446Z,34.28
2022-08-09T12:13:03.625Z,34.33
2022-08-09T12:15:52.877Z,34.42
2022-08-09T12:18:29.754Z,34.61
2022-08-09T12:21:00.364Z,34.88
2022-08-09T12:24:00.391Z,34.96
2022-08-09T12:26:19.798Z,35.10
2022-08-09T12:28:58.495Z,35.24
2022-08-09T12:31:58.984Z,35.52
2022-08-09T12:34:33.151Z,35.80
2022-08-09T12:37:22.106Z,36.04
2022-08-09T12:40:05.537Z,36.29
2022-08-09T12:42:34.213Z,36.43
2022-08-09T12:45:02.968Z,36.53
2022-08-09T12:47:52.675Z,36.56
2022-08-09T12:50:24.841Z,36.66
2022-08-09T12:53:09.573Z,36.75
2022-08-09T12:56:14.165Z,36.97
2022-08-09T12:58:31.133Z,37.12
2022-08-09T13:01:01.372Z,37.20
2022-08-09T13:03:53.861Z,37.15
2022-08-09T13:06:34.601Z,37.14
2022-08-09T13:09:12.654Z,37.17
2022-08-09T13:11:42.756Z,37.27
2022-08-09T13:14:41.065Z,37.41
2022-08-09T13:17:08.574Z,37.52
2022-08-09T13:20:07.293Z,37.73
2022-08-09T13:22:36.587Z,37.86
2022-08-09T13:25:16.836Z,37.92
2022-08-09T13:27:54.808Z,38.01
2022-08-09T13:31:11.519Z,38.09
2022-08-09T13:33:16.890Z,38.10
2022-08-09T13:36:38.707Z,37.95
2022-08-09T13:38:56.715Z,37.74
2022-08-09T13:41:59.115Z,37.72
2022-08-09T13:44:17.129Z,37.94
2022-08-09T13:47:26.788Z,38.15
2022-08-09T13:49:39.750Z,38.35
2022-08-09T13:52:25.631Z,38.49
2022-08-09T13:55:00.857Z,38.66
2022-08-09T13:57:35.809Z,38.59
2022-08-09T14:00:07.564Z,38.62
2022-08-09T14:02:42.460Z,38.79
2022-08-09T14:06:01.122Z,38.86
2022-08-09T14:08:18.124Z,38.89
2022-08-09T14:10:52.847Z,38.78
2022-08-09T14:14:15.629Z,38.84
2022-08-09T14:16:15.128Z,39.05
2022-08-09T14:18:45.791Z,39.27
2022-08-09T14:21:21.094Z,39.38
2022-08-09T14:23:57.138Z,39.40
2022-08-09T14:26:31.878Z,39.59
2022-08-09T14:29:03.762Z,39.83
2022-08-09T14:31:50.283Z,40.00
2022-08-09T14:34:27.197Z,40.23
2022-08-09T14:37:00.419Z,40.27
2022-08-09T14:39:39.936Z,40.36
2022-08-09T14:42:32.193Z,40.52
2022-08-09T14:46:54.919Z,40.54
2022-08-09T14:47:59.124Z,40.48
2022-08-09T14:50:32.564Z,40.34
2022-08-09T14:53:01.138Z,40.15
2022-08-09T14:55:32.685Z,39.94
2022-08-09T14:58:03.234Z,39.87
2022-08-09T15:00:33.319Z,39.83
2022-08-09T15:03:03.877Z,39.76
2022-08-09T15:05:33.368Z,39.78
2022-08-09T15:08:01.855Z,39.87
2022-08-09T15:10:35.536Z,39.90
2022-08-09T15:13:04.643Z,39.95
2022-08-09T15:15:34.454Z,39.88
2022-08-09T15:18:13.944Z,39.86
2022-08-09T15:22:00.632Z,39.83
2022-08-09T15:24:01.796Z,39.72
2022-08-09T15:26:30.701Z,39.93
2022-08-09T15:29:04.426Z,40.12
2022-08-09T15:31:41.518Z,40.45
2022-08-09T15:34:31.754Z,40.74
2022-08-09T15:37:00.017Z,40.74
2022-08-09T15:39:34.545Z,40.81
2022-08-09T15:42:15.000Z,40.72
2022-08-09T15:44:43.306Z,40.65
2022-08-09T15:47:14.579Z,40.56
2022-08-09T15:50:03.891Z,40.83
2022-08-09T15:52:37.403Z,40.95
2022-08-09T15:55:07.894Z,40.93
2022-08-09T15:57:44.339Z,40.93
2022-08-09T16:00:25.439Z,40.93
2022-08-09T16:02:57.836Z,40.66
2022-08-09T16:05:47.527Z,40.55
2022-08-09T16:08:30.405Z,40.66
2022-08-09T16:11:01.819Z,40.90
2022-08-09T16:14:04.058Z,40.89
2022-08-09T16:16:26.185Z,40.71
2022-08-09T16:18:56.601Z,40.69
2022-08-09T16:21:26.506Z,40.51
2022-08-09T16:24:02.212Z,40.14
2022-08-09T16:26:35.085Z,40.08
2022-08-09T16:29:11.800Z,39.80
2022-08-09T16:32:19.132Z,39.86
2022-08-09T16:34:55.495Z,39.88
2022-08-09T16:37:20.483Z,39.95
2022-08-09T16:40:09.696Z,39.90
2022-08-09T16:42:38.291Z,39.87
2022-08-09T16:45:09.753Z,40.01
2022-08-09T16:48:39.115Z,40.02
2022-08-09T16:50:33.909Z,39.56
2022-08-09T16:53:02.896Z,39.04
2022-08-09T16:55:57.746Z,38.47
2022-08-09T16:58:35.705Z,37.78
2022-08-09T17:01:05.954Z,37.40
2022-08-09T17:03:36.320Z,37.51
2022-08-09T17:06:19.779Z,37.76
2022-08-09T17:09:01.771Z,37.76
2022-08-09T17:11:42.365Z,37.86
2022-08-09T17:14:26.344Z,37.86
2022-08-09T17:16:59.962Z,37.89
2022-08-09T17:19:46.571Z,37.75
2022-08-09T17:22:30.996Z,37.64
2022-08-09T17:25:03.694Z,37.73
2022-08-09T17:27:33.398Z,37.47
2022-08-09T17:30:06.755Z,37.49
2022-08-09T17:32:40.305Z,37.40
2022-08-09T17:35:14.767Z,37.33
2022-08-09T17:38:11.495Z,37.25
2022-08-09T17:40:32.815Z,37.25
2022-08-09T17:43:10.621Z,37.14
2022-08-09T17:46:02.802Z,37.08
2022-08-09T17:48:38.493Z,37.08
2022-08-09T17:51:17.488Z,37.02
2022-08-09T17:53:51.546Z,36.98
2022-08-09T17:56:26.802Z,37.01
2022-08-09T17:58:58.199Z,36.88
2022-08-09T18:01:26.451Z,36.64
2022-08-09T18:04:16.041Z,36.33
2022-08-09T18:06:54.226Z,36.14
2022-08-09T18:09:25.197Z,36.03
2022-08-09T18:12:15.228Z,35.84
2022-08-09T18:14:53.948Z,35.73
2022-08-09T18:17:27.046Z,35.61
2022-08-09T18:20:57.185Z,35.38
2022-08-09T18:23:07.076Z,35.20
2022-08-09T18:25:52.811Z,35.06
2022-08-09T18:30:41.746Z,34.79
2022-08-09T18:31:13.846Z,34.39
2022-08-09T18:33:53.161Z,34.07
2022-08-09T18:36:25.742Z,33.69
2022-08-09T18:39:02.684Z,33.33
2022-08-09T18:41:35.119Z,32.59
2022-08-09T18:44:12.515Z,31.63
2022-08-09T18:46:47.136Z,30.91
2022-08-09T18:49:21.308Z,30.32
2022-08-09T18:51:55.233Z,29.78
2022-08-09T18:54:28.621Z,29.37
2022-08-09T18:57:05.861Z,29.12
2022-08-09T18:59:49.168Z,28.97
2022-08-09T19:02:20.901Z,28.72
2022-08-09T19:05:04.542Z,28.42
2022-08-09T19:08:04.836Z,28.13
2022-08-09T19:10:39.112Z,27.78
2022-08-09T19:13:19.995Z,27.46
2022-08-09T19:15:56.499Z,27.24
2022-08-09T19:18:33.799Z,27.10
2022-08-09T19:21:09.172Z,27.05
2022-08-09T19:24:32.259Z,27.06
2022-08-09T19:26:31.115Z,27.08
2022-08-09T19:29:01.539Z,27.08
2022-08-09T19:31:45.110Z,27.08
2022-08-09T19:34:21.497Z,27.07
2022-08-09T19:36:52.046Z,27.01
2022-08-09T19:39:44.002Z,26.96
2022-08-09T19:42:14.513Z,26.96
2022-08-09T19:44:49.294Z,26.99
2022-08-09T19:47:22.907Z,27.06
2022-08-09T19:50:07.977Z,27.13
2022-08-09T19:52:49.460Z,27.10
2022-08-09T19:55:25.548Z,27.09
2022-08-09T19:57:59.535Z,27.07
2022-08-09T20:00:30.173Z,27.02
2022-08-09T20:04:23.945Z,27.00
2022-08-09T20:05:50.603Z,26.99
2022-08-09T20:08:25.061Z,26.93
2022-08-09T20:11:05.293Z,26.87
2022-08-09T20:13:36.951Z,26.77
2022-08-09T20:16:34.927Z,26.67
2022-08-09T20:19:42.221Z,26.51
2022-08-09T20:21:56.473Z,26.37
2022-08-09T20:24:32.120Z,26.25
2022-08-09T20:27:05.757Z,26.17
2022-08-09T20:29:39.227Z,26.10
2022-08-09T20:32:28.935Z,26.07
2022-08-09T20:34:56.961Z,26.07
2022-08-09T20:37:25.203Z,25.98
2022-08-09T20:40:15.622Z,25.90
2022-08-09T20:42:59.405Z,25.84
2022-08-09T20:45:57.063Z,25.83
2022-08-09T20:48:21.435Z,25.85
2022-08-09T20:50:55.611Z,25.81
2022-08-09T20:53:37.768Z,25.74
2022-08-09T20:56:08.707Z,25.76
2022-08-09T20:58:38.582Z,25.78
2022-08-09T21:01:32.302Z,25.83
2022-08-09T21:04:14.176Z,25.87
2022-08-09T21:06:48.038Z,25.87
2022-08-09T21:09:24.809Z,25.82
2022-08-09T21:14:40.385Z,25.73
2022-08-09T21:18:23.296Z,25.68
2022-08-09T21:20:18.681Z,25.58
2022-08-09T21:22:52.591Z,25.52
2022-08-09T21:25:39.898Z,25.47
2022-08-09T21:28:15.733Z,25.40
2022-08-09T21:30:45.669Z,25.35
2022-08-09T21:33:16.042Z,25.31
2022-08-09T21:35:51.431Z,25.25
2022-08-09T21:38:31.074Z,25.19
2022-08-09T21:40:59.918Z,25.12
2022-08-09T21:43:56.062Z,25.07
2022-08-09T21:46:17.639Z,25.01
2022-08-09T21:48:49.351Z,24.98
2022-08-09T21:51:24.409Z,25.02
2022-08-09T21:54:04.797Z,25.02
2022-08-09T21:56:43.160Z,25.01
2022-08-09T21:59:23.328Z,24.97
2022-08-09T22:02:00.877Z,24.91
2022-08-09T22:04:55.540Z,24.79
2022-08-09T22:07:35.447Z,24.70
2022-08-09T22:10:07.332Z,24.66
2022-08-09T22:12:35.524Z,24.58
2022-08-09T22:15:07.285Z,24.49
2022-08-09T22:17:46.372Z,24.41
2022-08-09T22:20:17.030Z,24.37
2022-08-09T22:22:50.712Z,24.30
2022-08-09T22:26:07.135Z,24.25
2022-08-09T22:28:08.494Z,24.17
2022-08-09T22:30:36.799Z,24.12
2022-08-09T22:33:09.639Z,24.07
2022-08-09T22:36:01.573Z,24.02
2022-08-09T22:38:27.236Z,23.98
2022-08-09T22:40:57.792Z,23.93
2022-08-09T22:44:02.697Z,23.86
2022-08-09T22:48:16.237Z,23.82
2022-08-09T22:49:09.580Z,23.72
2022-08-09T22:51:39.417Z,23.67
2022-08-09T22:54:08.294Z,23.66
2022-08-09T22:56:41.587Z,23.65
2022-08-09T22:59:57.960Z,23.64
2022-08-09T23:01:58.136Z,23.65
2022-08-09T23:04:27.560Z,23.67
2022-08-09T23:07:18.205Z,23.67
2022-08-09T23:10:06.928Z,23.66
2022-08-09T23:12:36.186Z,23.65
2022-08-09T23:15:05.859Z,23.66
2022-08-09T23:17:34.264Z,23.64
2022-08-09T23:20:07.795Z,23.64
2022-08-09T23:22:38.956Z,23.61
2022-08-09T23:25:07.975Z,23.57
2022-08-09T23:27:36.243Z,23.55
2022-08-09T23:30:24.216Z,23.52
2022-08-09T23:32:52.259Z,23.49
2022-08-09T23:35:21.850Z,23.46
2022-08-09T23:37:52.296Z,23.44
2022-08-09T23:40:20.499Z,23.43
2022-08-09T23:42:48.573Z,23.40
2022-08-09T23:45:37.256Z,23.41
2022-08-09T23:48:08.966Z,23.40
2022-08-09T23:50:38.808Z,23.36
2022-08-09T23:53:06.925Z,23.37
2022-08-09T23:55:38.123Z,23.35
2022-08-09T23:58:25.731Z,23.28
